createdAt,value
2023-02-19T00:02:16.972Z,19.50
2023-02-19T00:04:46.945Z,17.57
2023-02-19T00:07:14.105Z,15.77
2023-02-19T00:09:40.933Z,16.73
2023-02-19T00:12:08.172Z,12.77
2023-02-19T00:14:35.995Z,17.03
2023-02-19T00:17:02.884Z,13.50
2023-02-19T00:19:29.986Z,15.03
2023-02-19T00:21:57.160Z,11.73
2023-02-19T00:24:24.069Z,12.73
2023-02-19T00:26:53.398Z,13.33
2023-02-19T00:29:21.899Z,13.17
2023-02-19T00:31:49.034Z,12.63
2023-02-19T00:34:16.534Z,12.57
2023-02-19T00:36:43.927Z,10.37
2023-02-19T00:39:15.644Z,12.67
2023-02-19T00:41:43.052Z,14.63
2023-02-19T00:44:11.769Z,13.07
2023-02-19T00:46:45.053Z,14.20
2023-02-19T00:49:21.267Z,11.63
2023-02-19T00:51:49.589Z,11.97
2023-02-19T00:54:17.070Z,16.13
2023-02-19T00:56:44.275Z,12.83
2023-02-19T00:59:11.653Z,14.40
2023-02-19T01:01:39.256Z,13.93
2023-02-19T01:04:06.907Z,13.37
2023-02-19T01:06:34.973Z,11.27
2023-02-19T01:09:02.412Z,13.73
2023-02-19T01:11:29.222Z,11.23
2023-02-19T01:14:00.172Z,10.70
2023-02-19T01:16:27.969Z,9.67
2023-02-19T01:18:54.879Z,11.20
2023-02-19T01:21:24.254Z,11.40
2023-02-19T01:23:52.597Z,11.03
2023-02-19T01:26:22.255Z,12.03
2023-02-19T01:28:49.195Z,13.90
2023-02-19T01:31:18.833Z,13.37
2023-02-19T01:33:47.866Z,9.67
2023-02-19T01:36:15.256Z,11.70
2023-02-19T01:38:42.509Z,9.40
2023-02-19T01:41:13.653Z,8.70
2023-02-19T01:44:01.839Z,8.80
2023-02-19T01:46:36.764Z,11.37
2023-02-19T01:49:16.192Z,8.37
2023-02-19T01:51:47.658Z,9.97
2023-02-19T01:54:18.104Z,10.70
2023-02-19T01:56:46.915Z,8.97
2023-02-19T01:59:14.415Z,10.07
2023-02-19T02:01:42.020Z,9.47
2023-02-19T02:04:15.162Z,10.40
2023-02-19T02:06:48.644Z,8.33
2023-02-19T02:09:37.646Z,11.43
2023-02-19T02:12:05.087Z,12.10
2023-02-19T02:14:36.627Z,9.17
2023-02-19T02:17:28.107Z,8.17
2023-02-19T02:20:15.516Z,6.97
2023-02-19T02:23:14.747Z,7.00
2023-02-19T02:26:11.005Z,8.07
2023-02-19T02:29:05.640Z,4.97
2023-02-19T02:31:39.613Z,8.67
2023-02-19T02:34:46.250Z,7.40
2023-02-19T02:37:15.311Z,6.97
2023-02-19T02:39:46.652Z,6.63
2023-02-19T02:42:29.078Z,7.40
2023-02-19T02:45:34.699Z,6.93
2023-02-19T02:48:32.202Z,5.53
2023-02-19T02:51:16.200Z,6.83
2023-02-19T02:54:29.496Z,8.87
2023-02-19T02:56:58.487Z,4.70
2023-02-19T02:59:29.028Z,5.57
2023-02-19T03:02:11.260Z,7.83
2023-02-19T03:05:17.312Z,5.20
2023-02-19T03:07:47.789Z,9.93
2023-02-19T03:10:20.691Z,4.87
2023-02-19T03:13:09.755Z,5.57
2023-02-19T03:16:02.162Z,5.40
2023-02-19T03:18:51.080Z,9.23
2023-02-19T03:21:21.881Z,9.33
2023-02-19T03:24:09.409Z,6.30
2023-02-19T03:26:37.650Z,7.83
2023-02-19T03:29:24.489Z,3.93
2023-02-19T03:31:56.374Z,9.97
2023-02-19T03:34:29.762Z,4.43
2023-02-19T03:37:10.636Z,5.23
2023-02-19T03:39:44.555Z,4.77
2023-02-19T03:42:23.852Z,2.53
2023-02-19T03:45:28.527Z,5.00
2023-02-19T03:48:25.299Z,4.90
2023-02-19T03:51:27.765Z,5.33
2023-02-19T03:54:14.772Z,4.43
2023-02-19T03:56:53.152Z,5.40
2023-02-19T04:00:04.323Z,6.07
2023-02-19T04:02:58.220Z,4.13
2023-02-19T04:05:30.083Z,5.60
2023-02-19T04:08:08.737Z,9.03
2023-02-19T04:10:37.516Z,5.10
2023-02-19T04:13:15.505Z,4.87
2023-02-19T04:15:44.533Z,7.03
2023-02-19T04:18:26.737Z,5.97
2023-02-19T04:20:53.843Z,3.63
2023-02-19T04:23:25.748Z,5.43
2023-02-19T04:25:57.213Z,4.47
2023-02-19T04:28:24.223Z,6.03
2023-02-19T04:30:53.619Z,5.70
2023-02-19T04:33:20.743Z,5.60
2023-02-19T04:35:47.828Z,4.20
2023-02-19T04:38:14.957Z,3.20
2023-02-19T04:40:41.867Z,4.83
2023-02-19T04:43:08.731Z,7.37
2023-02-19T04:45:38.291Z,7.97
2023-02-19T04:48:06.089Z,7.37
2023-02-19T04:50:33.100Z,9.63
2023-02-19T04:53:01.286Z,6.03
2023-02-19T04:55:28.275Z,6.43
2023-02-19T04:57:55.159Z,7.57
2023-02-19T05:00:22.181Z,3.63
2023-02-19T05:02:49.073Z,7.17
2023-02-19T05:05:16.060Z,4.60
2023-02-19T05:07:45.787Z,5.40
2023-02-19T05:10:12.696Z,5.53
2023-02-19T05:12:39.473Z,6.53
2023-02-19T05:15:06.811Z,9.03
2023-02-19T05:17:34.816Z,7.03
2023-02-19T05:20:01.909Z,9.87
2023-02-19T05:22:30.290Z,4.23
2023-02-19T05:24:57.392Z,9.27
2023-02-19T05:27:24.303Z,6.40
2023-02-19T05:29:51.269Z,5.27
2023-02-19T05:32:18.293Z,5.07
2023-02-19T05:34:45.386Z,4.20
2023-02-19T05:37:12.509Z,4.83
2023-02-19T05:39:39.570Z,6.70
2023-02-19T05:42:06.557Z,4.37
2023-02-19T05:44:33.484Z,10.87
2023-02-19T05:47:00.443Z,5.27
2023-02-19T05:49:28.169Z,5.40
2023-02-19T05:51:55.040Z,6.70
2023-02-19T05:54:21.933Z,7.57
2023-02-19T05:56:49.132Z,5.67
2023-02-19T05:59:22.422Z,5.50
2023-02-19T06:01:51.293Z,3.97
2023-02-19T06:04:20.144Z,6.90
2023-02-19T06:06:48.218Z,6.30
2023-02-19T06:09:15.236Z,2.70
2023-02-19T06:11:43.737Z,6.03
2023-02-19T06:14:13.755Z,4.87
2023-02-19T06:16:40.848Z,5.77
2023-02-19T06:19:08.123Z,4.60
2023-02-19T06:21:35.544Z,7.77
2023-02-19T06:24:10.019Z,7.13
2023-02-19T06:26:38.524Z,6.63
2023-02-19T06:29:05.394Z,11.43
2023-02-19T06:31:32.343Z,9.20
2023-02-19T06:33:59.631Z,7.13
2023-02-19T06:36:26.780Z,8.30
2023-02-19T06:38:53.759Z,9.73
2023-02-19T06:41:25.117Z,8.23
2023-02-19T06:43:51.944Z,9.87
2023-02-19T06:46:19.201Z,9.47
2023-02-19T06:48:46.450Z,9.50
2023-02-19T06:51:15.608Z,10.97
2023-02-19T06:53:42.443Z,12.33
2023-02-19T06:56:23.377Z,9.50
2023-02-19T06:58:50.406Z,12.27
2023-02-19T07:01:17.407Z,11.13
2023-02-19T07:03:44.619Z,13.77
2023-02-19T07:06:11.677Z,11.43
2023-02-19T07:08:38.658Z,11.33
2023-02-19T07:11:05.986Z,10.73
2023-02-19T07:13:33.249Z,14.77
2023-02-19T07:16:04.259Z,12.27
2023-02-19T07:18:32.259Z,12.47
2023-02-19T07:21:11.500Z,14.90
2023-02-19T07:23:38.578Z,17.90
2023-02-19T07:26:09.398Z,17.80
2023-02-19T07:28:36.188Z,23.63
2023-02-19T07:31:04.641Z,21.63
2023-02-19T07:33:31.638Z,20.53
2023-02-19T07:35:58.685Z,15.73
2023-02-19T07:38:27.318Z,12.17
2023-02-19T07:40:55.718Z,11.70
2023-02-19T07:43:23.885Z,9.10
2023-02-19T07:45:53.888Z,11.07
2023-02-19T07:48:21.327Z,10.43
2023-02-19T07:50:55.482Z,10.67
2023-02-19T07:53:22.993Z,6.77
2023-02-19T07:55:50.181Z,9.90
2023-02-19T07:58:17.659Z,7.87
2023-02-19T08:00:47.583Z,16.30
2023-02-19T08:03:14.443Z,11.83
2023-02-19T08:05:42.876Z,11.90
2023-02-19T08:08:14.950Z,9.67
2023-02-19T08:11:00.591Z,6.50
2023-02-19T08:13:30.441Z,13.53
2023-02-19T08:16:19.962Z,9.87
2023-02-19T08:18:49.509Z,13.67
2023-02-19T08:21:18.494Z,27.37
2023-02-19T08:23:46.606Z,30.43
2023-02-19T08:26:14.015Z,15.50
2023-02-19T08:28:41.652Z,14.47
2023-02-19T08:31:14.340Z,23.50
2023-02-19T08:33:41.457Z,7.90
2023-02-19T08:36:10.165Z,12.20
2023-02-19T08:38:39.786Z,4.70
2023-02-19T08:41:09.045Z,5.13
2023-02-19T08:43:36.787Z,5.37
2023-02-19T08:46:04.874Z,3.70
2023-02-19T08:48:32.024Z,5.13
2023-02-19T08:51:04.591Z,1.97
2023-02-19T08:53:32.947Z,2.70
2023-02-19T08:56:04.559Z,5.17
2023-02-19T08:58:33.242Z,2.33
2023-02-19T09:01:00.250Z,2.87
2023-02-19T09:03:27.337Z,6.13
2023-02-19T09:05:54.347Z,4.33
2023-02-19T09:08:21.319Z,3.77
2023-02-19T09:10:59.386Z,2.80
2023-02-19T09:13:26.486Z,3.97
2023-02-19T09:15:53.567Z,3.60
2023-02-19T09:18:20.670Z,3.30
2023-02-19T09:20:47.754Z,4.80
2023-02-19T09:23:14.913Z,1.33
2023-02-19T09:25:41.887Z,3.67
2023-02-19T09:28:11.725Z,4.57
2023-02-19T09:30:38.596Z,4.30
2023-02-19T09:33:06.071Z,1.67
2023-02-19T09:35:38.405Z,3.07
2023-02-19T09:38:05.330Z,2.77
2023-02-19T09:40:32.371Z,5.10
2023-02-19T09:43:03.534Z,3.90
2023-02-19T09:45:30.576Z,1.43
2023-02-19T09:47:58.645Z,2.67
2023-02-19T09:50:35.157Z,2.03
2023-02-19T09:53:10.562Z,3.93
2023-02-19T09:55:40.971Z,4.07
2023-02-19T09:58:24.786Z,2.97
2023-02-19T10:00:53.336Z,3.77
2023-02-19T10:03:43.389Z,1.87
2023-02-19T10:06:20.930Z,3.03
2023-02-19T10:08:51.593Z,2.43
2023-02-19T10:11:19.335Z,4.60
2023-02-19T10:14:01.981Z,3.00
2023-02-19T10:16:29.625Z,5.40
2023-02-19T10:18:56.767Z,2.97
2023-02-19T10:21:26.020Z,2.33
2023-02-19T10:24:03.333Z,3.10
2023-02-19T10:26:35.396Z,3.10
2023-02-19T10:29:14.050Z,3.73
2023-02-19T10:31:40.884Z,3.67
2023-02-19T10:34:19.779Z,4.47
2023-02-19T10:36:49.023Z,6.67
2023-02-19T10:39:42.711Z,3.37
2023-02-19T10:42:21.670Z,5.90
2023-02-19T10:44:58.729Z,6.37
2023-02-19T10:47:27.689Z,6.43
2023-02-19T10:49:58.472Z,10.23
2023-02-19T10:52:34.681Z,7.03
2023-02-19T10:55:27.188Z,5.93
2023-02-19T10:57:55.264Z,4.57
2023-02-19T11:00:30.829Z,6.83
2023-02-19T11:03:18.658Z,7.27
2023-02-19T11:05:59.722Z,21.13
2023-02-19T11:08:26.880Z,5.70
2023-02-19T11:10:53.861Z,7.57
2023-02-19T11:13:29.300Z,10.70
2023-02-19T11:15:57.127Z,4.70
2023-02-19T11:18:32.107Z,5.63
2023-02-19T11:21:02.325Z,3.00
2023-02-19T11:23:33.260Z,4.13
2023-02-19T11:26:04.107Z,5.80
2023-02-19T11:28:32.811Z,4.70
2023-02-19T11:31:26.278Z,3.60
2023-02-19T11:34:21.654Z,8.80
2023-02-19T11:37:08.397Z,3.20
2023-02-19T11:39:36.255Z,6.33
2023-02-19T11:42:18.078Z,3.43
2023-02-19T11:44:54.473Z,5.87
2023-02-19T11:47:39.785Z,4.03
2023-02-19T11:50:17.344Z,5.13
2023-02-19T11:52:54.396Z,3.30
2023-02-19T11:55:42.621Z,3.53
2023-02-19T11:58:39.269Z,6.20
2023-02-19T12:01:21.500Z,2.77
2023-02-19T12:04:00.294Z,3.17
2023-02-19T12:06:31.721Z,5.50
2023-02-19T12:09:38.130Z,3.80
2023-02-19T12:12:24.514Z,4.43
2023-02-19T12:15:20.389Z,3.10
2023-02-19T12:17:53.176Z,4.53
2023-02-19T12:20:33.818Z,7.97
2023-02-19T12:23:28.373Z,4.37
2023-02-19T12:26:07.086Z,3.10
2023-02-19T12:28:49.319Z,5.53
2023-02-19T12:32:00.660Z,4.07
2023-02-19T12:34:59.768Z,5.70
2023-02-19T12:37:53.362Z,4.03
2023-02-19T12:40:46.252Z,3.70
2023-02-19T12:43:20.111Z,4.17
2023-02-19T12:45:59.155Z,7.40
2023-02-19T12:48:39.229Z,8.10
2023-02-19T12:51:16.292Z,4.77
2023-02-19T12:53:59.463Z,6.03
2023-02-19T12:56:36.711Z,7.17
2023-02-19T12:59:21.476Z,5.03
2023-02-19T13:02:11.331Z,5.63
2023-02-19T13:05:02.756Z,2.87
2023-02-19T13:07:39.538Z,4.63
2023-02-19T13:10:40.612Z,3.83
2023-02-19T13:13:23.927Z,4.10
2023-02-19T13:15:54.186Z,4.23
2023-02-19T13:18:26.433Z,4.73
2023-02-19T13:20:55.639Z,2.00
2023-02-19T13:23:47.011Z,3.47
2023-02-19T13:26:41.642Z,3.73
2023-02-19T13:29:29.896Z,4.07
2023-02-19T13:32:24.342Z,4.93
2023-02-19T13:35:13.698Z,3.20
2023-02-19T13:37:41.651Z,3.43
2023-02-19T13:40:36.251Z,4.43
2023-02-19T13:43:06.519Z,5.50
2023-02-19T13:45:46.289Z,4.57
2023-02-19T13:48:24.278Z,1.50
2023-02-19T13:51:17.246Z,4.83
2023-02-19T13:53:48.448Z,2.77
2023-02-19T13:56:30.439Z,5.13
2023-02-19T13:58:58.200Z,2.40
2023-02-19T14:01:50.160Z,2.77
2023-02-19T14:04:47.652Z,3.97
2023-02-19T14:07:14.540Z,2.87
2023-02-19T14:09:41.488Z,1.70
2023-02-19T14:12:09.732Z,5.23
2023-02-19T14:14:36.572Z,4.57
2023-02-19T14:17:09.418Z,4.50
2023-02-19T14:19:41.907Z,8.10
2023-02-19T14:23:05.964Z,3.33
2023-02-19T14:42:36.140Z,116.53
2023-02-19T14:45:07.300Z,131.43
2023-02-19T19:08:17.730Z,81.70
2023-02-19T19:10:44.613Z,77.67
2023-02-19T19:23:24.134Z,7.03
2023-02-19T19:25:51.108Z,4.43
2023-02-19T19:28:17.950Z,4.67
2023-02-19T19:30:44.985Z,4.67
2023-02-19T19:33:12.115Z,5.80
2023-02-19T19:35:40.944Z,5.77
2023-02-19T19:38:08.327Z,7.07
2023-02-19T19:40:35.159Z,4.70
2023-02-19T19:43:02.100Z,6.20
2023-02-19T19:45:29.108Z,6.33
2023-02-19T19:47:56.194Z,6.83
2023-02-19T19:50:23.374Z,8.27
2023-02-19T19:52:50.242Z,7.60
2023-02-19T19:55:17.997Z,6.97
2023-02-19T19:57:44.936Z,5.27
2023-02-19T20:00:16.261Z,4.80
2023-02-19T20:02:43.186Z,7.53
2023-02-19T20:05:10.396Z,8.60
2023-02-19T20:07:37.448Z,8.93
2023-02-19T20:10:05.876Z,7.60
2023-02-19T20:12:33.015Z,6.87
2023-02-19T20:15:02.554Z,9.03
2023-02-19T20:17:29.483Z,8.77
2023-02-19T20:19:56.395Z,7.23
2023-02-19T20:22:23.332Z,8.27
2023-02-19T20:24:54.711Z,8.83
2023-02-19T20:27:22.954Z,10.43
2023-02-19T20:29:50.400Z,7.07
2023-02-19T20:32:20.571Z,7.30
2023-02-19T20:34:48.120Z,7.63
2023-02-19T20:37:15.370Z,5.40
2023-02-19T20:39:43.556Z,7.97
2023-02-19T20:42:10.481Z,6.20
2023-02-19T20:44:42.544Z,12.23
2023-02-19T20:47:09.536Z,6.33
2023-02-19T20:49:36.498Z,10.17
2023-02-19T20:52:07.001Z,12.47
2023-02-19T20:54:37.100Z,10.47
2023-02-19T20:57:05.793Z,6.80
2023-02-19T20:59:35.768Z,6.80
2023-02-19T21:02:05.579Z,7.80
2023-02-19T21:04:34.573Z,9.00
2023-02-19T21:07:04.138Z,6.53
2023-02-19T21:09:31.236Z,9.10
2023-02-19T21:11:58.849Z,4.87
2023-02-19T21:14:27.014Z,5.00
2023-02-19T21:16:53.990Z,8.03
2023-02-19T21:19:21.928Z,8.33
2023-02-19T21:21:48.725Z,7.73
2023-02-19T21:24:16.962Z,6.47
2023-02-19T21:26:45.056Z,7.80
2023-02-19T21:29:19.501Z,6.17
2023-02-19T21:31:48.906Z,5.33
2023-02-19T21:34:19.489Z,7.90
2023-02-19T21:36:47.046Z,5.37
2023-02-19T21:39:17.347Z,6.13
2023-02-19T21:41:44.511Z,8.47
2023-02-19T21:44:11.447Z,5.73
2023-02-19T21:46:38.587Z,12.43
2023-02-19T21:49:08.262Z,7.77
2023-02-19T21:51:38.165Z,11.00
2023-02-19T21:54:06.692Z,6.63
2023-02-19T21:56:36.238Z,10.60
2023-02-19T21:59:03.762Z,8.67
2023-02-19T22:01:35.387Z,10.70
2023-02-19T22:04:02.441Z,8.07
2023-02-19T22:06:31.219Z,7.60
2023-02-19T22:08:58.853Z,4.93
2023-02-19T22:11:25.983Z,9.97
2023-02-19T22:13:53.469Z,9.60
2023-02-19T22:16:20.651Z,7.63
2023-02-19T22:18:52.592Z,6.40
2023-02-19T22:21:23.200Z,7.23
2023-02-19T22:23:52.302Z,11.50
2023-02-19T22:26:24.212Z,10.57
2023-02-19T22:28:51.774Z,9.17
2023-02-19T22:31:21.017Z,10.13
2023-02-19T22:33:48.385Z,9.13
2023-02-19T22:36:17.605Z,9.43
2023-02-19T22:38:48.024Z,8.43
2023-02-19T22:41:16.141Z,10.20
2023-02-19T22:43:43.457Z,7.17
2023-02-19T22:46:14.835Z,6.10
2023-02-19T22:48:42.015Z,5.20
2023-02-19T22:51:17.570Z,7.30
2023-02-19T22:53:53.024Z,4.60
2023-02-19T22:56:22.456Z,8.40
2023-02-19T22:58:49.703Z,5.23
2023-02-19T23:01:16.982Z,5.83
2023-02-19T23:03:55.015Z,6.90
2023-02-19T23:06:25.902Z,7.10
2023-02-19T23:08:54.194Z,4.40
2023-02-19T23:11:30.640Z,7.93
2023-02-19T23:13:58.780Z,8.40
2023-02-19T23:16:26.747Z,6.97
2023-02-19T23:18:56.716Z,6.47
2023-02-19T23:21:23.725Z,6.77
2023-02-19T23:23:50.752Z,5.87
2023-02-19T23:26:17.603Z,5.37
2023-02-19T23:28:45.519Z,5.87
2023-02-19T23:31:13.556Z,6.57
2023-02-19T23:33:43.742Z,7.37
2023-02-19T23:36:11.539Z,5.63
2023-02-19T23:38:38.580Z,7.80
2023-02-19T23:41:13.089Z,7.00
2023-02-19T23:43:40.261Z,6.50
2023-02-19T23:46:07.787Z,6.17
2023-02-19T23:48:34.771Z,4.07
2023-02-19T23:51:01.853Z,5.73
2023-02-19T23:53:29.846Z,7.30
2023-02-19T23:55:59.648Z,6.20
2023-02-19T23:58:26.551Z,5.67
